Time;durP1;ratioP1;P1;durP2;ratioP2;P2;SDS_P1;SDS_P2;PMS_P1;PMS_P2;Temp;Humidity;BMP_temperature;BMP_pressure;BME280_temperature;BME280_humidity;BME280_pressure;Samples;Min_cycle;Max_cycle;Signal;HPM_P1;HPM_P2
2022/11/17 00:00:17;;;;;;;;;;;;;;;-5.32;81.63;98913.50;4994114;28;19929;-80
2022/11/17 00:02:45;;;;;;;;;;;;;;;-5.30;81.63;98916.81;4994049;28;19929;-80
2022/11/17 00:05:12;;;;;;;;;;;;;;;-5.32;81.48;98910.06;4993952;28;19983;-81
2022/11/17 00:07:39;;;;;;;;;;;;;;;-5.35;81.60;98903.28;5011218;28;20397;-81
2022/11/17 00:10:06;;;;;;;;;;;;;;;-5.35;81.55;98899.81;4995158;28;19929;-79
2022/11/17 00:15:18;;;;;;;;;;;;;;;-5.53;81.94;98897.13;5011600;28;19973;-80
2022/11/17 00:17:46;;;;;;;;;;;;;;;-5.57;82.11;98898.38;5011532;28;20318;-80
2022/11/17 00:22:59;;;;;;;;;;;;;;;-5.55;82.45;98897.28;5011395;28;20061;-81
2022/11/17 00:25:26;;;;;;;;;;;;;;;-5.57;82.58;98886.09;5011296;28;20352;-81
2022/11/17 00:27:53;;;;;;;;;;;;;;;-5.57;82.81;98885.25;4993255;28;20268;-81
2022/11/17 00:35:55;;;;;;;;;;;;;;;-5.51;82.78;98879.41;5011132;28;20844;-80
2022/11/17 00:38:21;;;;;;;;;;;;;;;-5.49;82.81;98880.09;4993799;28;19938;-80
2022/11/17 00:40:48;;;;;;;;;;;;;;;-5.47;82.87;98878.13;5010864;28;19929;-80
2022/11/17 00:43:15;;;;;;;;;;;;;;;-5.47;82.84;98878.13;5015495;28;20383;-81
2022/11/17 00:45:42;;;;;;;;;;;;;;;-5.47;82.63;98872.88;5010560;28;19935;-80
2022/11/17 00:48:09;;;;;;;;;;;;;;;-5.47;82.96;98883.41;5009137;28;20040;-80
2022/11/17 00:50:36;;;;;;;;;;;;;;;-5.47;82.81;98872.88;5009780;28;19936;-80
2022/11/17 00:53:03;;;;;;;;;;;;;;;-5.47;82.80;98870.25;5013791;28;20396;-80
2022/11/17 00:55:29;;;;;;;;;;;;;;;-5.47;83.00;98865.84;5020056;28;19933;-81
2022/11/17 00:57:57;;;;;;;;;;;;;;;-5.45;82.97;98876.19;5013221;28;20192;-81
2022/11/17 01:00:24;;;;;;;;;;;;;;;-5.43;83.01;98862.91;5018420;28;19936;-80
2022/11/17 01:02:51;;;;;;;;;;;;;;;-5.44;83.15;98867.34;5015204;28;20361;-81
2022/11/17 01:05:18;;;;;;;;;;;;;;;-5.49;83.00;98862.53;5025330;28;20029;-81
2022/11/17 01:07:45;;;;;;;;;;;;;;;-5.48;83.04;98864.16;5022522;28;19929;-80
2022/11/17 01:10:12;;;;;;;;;;;;;;;-5.50;82.88;98858.22;5024662;28;20378;-81
2022/11/17 01:12:39;;;;;;;;;;;;;;;-5.49;83.12;98864.31;5023787;28;19929;-80
2022/11/17 01:15:06;;;;;;;;;;;;;;;-5.53;83.31;98847.16;5023484;28;19929;-80
2022/11/17 01:17:33;;;;;;;;;;;;;;;-5.51;83.28;98853.13;5024403;28;19929;-81
2022/11/17 01:20:00;;;;;;;;;;;;;;;-5.60;83.32;98849.53;5035209;28;20343;-81
2022/11/17 01:22:28;;;;;;;;;;;;;;;-5.67;83.32;98840.59;5042306;28;20346;-80
2022/11/17 01:24:55;;;;;;;;;;;;;;;-5.70;83.72;98836.47;5043837;28;20984;-79
2022/11/17 01:27:22;;;;;;;;;;;;;;;-5.68;83.89;98837.13;5032961;28;19929;-80
2022/11/17 01:29:49;;;;;;;;;;;;;;;-5.66;83.96;98829.91;5022887;28;20008;-80
2022/11/17 01:32:17;;;;;;;;;;;;;;;-5.59;84.04;98819.66;5041555;28;19929;-79
2022/11/17 01:34:47;;;;;;;;;;;;;;;-5.56;84.12;98824.63;5024068;28;20388;-80
2022/11/17 01:37:20;;;;;;;;;;;;;;;-5.48;83.87;98818.63;5038022;28;19952;-81
2022/11/17 01:39:47;;;;;;;;;;;;;;;-5.44;83.70;98822.63;5042964;28;19936;-81
2022/11/17 01:42:16;;;;;;;;;;;;;;;-5.43;83.56;98820.81;5038053;28;19929;-80
2022/11/17 01:44:47;;;;;;;;;;;;;;;-5.43;83.48;98823.44;5048937;28;19951;-81
2022/11/17 01:47:16;;;;;;;;;;;;;;;-5.48;83.59;98821.25;5053652;28;20399;-80
2022/11/17 01:49:43;;;;;;;;;;;;;;;-5.49;83.69;98822.25;5024040;28;19928;-81
2022/11/17 01:52:10;;;;;;;;;;;;;;;-5.54;83.61;98816.59;5042974;28;19929;-79
2022/11/17 01:54:39;;;;;;;;;;;;;;;-5.52;83.79;98818.09;5016533;28;19928;-81
2022/11/17 01:57:10;;;;;;;;;;;;;;;-5.55;83.82;98812.28;5007582;28;19951;-80
2022/11/17 01:59:37;;;;;;;;;;;;;;;-5.57;83.95;98814.25;5040692;28;19958;-80
2022/11/17 02:02:04;;;;;;;;;;;;;;;-5.60;83.78;98815.34;5045116;28;19929;-81
2022/11/17 02:04:42;;;;;;;;;;;;;;;-5.60;83.94;98814.53;5044762;28;20363;-81
2022/11/17 02:07:14;;;;;;;;;;;;;;;-5.58;84.30;98816.03;5042524;28;19929;-80
2022/11/17 02:09:41;;;;;;;;;;;;;;;-5.55;84.23;98817.56;5009780;28;20429;-80
2022/11/17 02:12:09;;;;;;;;;;;;;;;-5.51;84.07;98814.50;4992227;28;19972;-80
2022/11/17 02:14:38;;;;;;;;;;;;;;;-5.47;84.22;98810.59;5011769;28;19929;-79
2022/11/17 02:17:06;;;;;;;;;;;;;;;-5.47;83.89;98809.75;5012758;28;19929;-79
2022/11/17 02:19:41;;;;;;;;;;;;;;;-5.45;84.20;98808.63;5022661;28;19940;-79
2022/11/17 02:22:29;;;;;;;;;;;;;;;-5.43;84.09;98799.78;5010071;28;19979;-80
2022/11/17 02:24:59;;;;;;;;;;;;;;;-5.45;84.14;98792.84;4980003;28;19930;-80
2022/11/17 02:27:32;;;;;;;;;;;;;;;-5.41;84.11;98793.41;5023936;28;20364;-80
2022/11/17 02:30:05;;;;;;;;;;;;;;;-5.37;84.11;98792.09;5013640;28;20293;-80
2022/11/17 02:32:38;;;;;;;;;;;;;;;-5.39;84.29;98791.47;5005487;28;19933;-79
2022/11/17 02:35:10;;;;;;;;;;;;;;;-5.34;84.17;98793.63;5049149;28;19935;-80
2022/11/17 02:37:56;;;;;;;;;;;;;;;-5.32;83.99;98784.59;5023472;28;20395;-82
2022/11/17 02:40:46;;;;;;;;;;;;;;;-5.32;84.18;98779.34;5032483;28;19933;-82
2022/11/17 02:46:27;;;;;;;;;;;;;;;-5.32;84.12;98775.88;4998192;28;20368;-80
2022/11/17 02:48:58;;;;;;;;;;;;;;;-5.32;84.29;98776.72;5009291;28;19935;-81
2022/11/17 02:51:25;;;;;;;;;;;;;;;-5.35;84.17;98770.94;4979228;28;19939;-81
2022/11/17 02:53:52;;;;;;;;;;;;;;;-5.35;84.32;98766.50;5012760;28;20400;-80
2022/11/17 02:56:19;;;;;;;;;;;;;;;-5.41;nan;98761.84;4995385;28;19936;-81
2022/11/17 02:58:47;;;;;;;;;;;;;;;-5.45;84.55;98761.28;5012319;28;19929;-81
2022/11/17 03:01:18;;;;;;;;;;;;;;;-5.42;84.77;98760.16;5012713;28;19976;-80
2022/11/17 03:03:49;;;;;;;;;;;;;;;-5.43;84.78;98760.34;4959310;28;19929;-80
2022/11/17 03:06:19;;;;;;;;;;;;;;;-5.48;84.72;98758.97;4992751;28;19936;-80
2022/11/17 03:08:47;;;;;;;;;;;;;;;-5.45;85.14;98763.91;4992424;28;19937;-81
2022/11/17 03:11:14;;;;;;;;;;;;;;;-5.42;84.94;98760.16;4975527;28;19933;-81
2022/11/17 03:13:50;;;;;;;;;;;;;;;-5.40;85.12;98760.84;4976019;28;20011;-81
2022/11/17 03:16:20;;;;;;;;;;;;;;;-5.41;85.16;98759.22;4976687;28;20160;-81
2022/11/17 03:18:52;;;;;;;;;;;;;;;-5.34;85.16;98764.69;4992501;28;19934;-80
2022/11/17 03:21:21;;;;;;;;;;;;;;;-5.31;85.11;98757.34;4975287;28;19930;-80
2022/11/17 03:24:07;;;;;;;;;;;;;;;-5.31;85.23;98762.59;4992216;28;19985;-80
2022/11/17 03:26:38;;;;;;;;;;;;;;;-5.32;85.20;98760.94;4992881;28;19936;-81
2022/11/17 03:29:06;;;;;;;;;;;;;;;-5.34;85.02;98756.78;4974864;28;20036;-80
2022/11/17 03:31:33;;;;;;;;;;;;;;;-5.37;85.47;98749.19;4974895;28;19930;-81
2022/11/17 03:34:08;;;;;;;;;;;;;;;-5.36;85.37;98746.44;4974747;28;20024;-81
2022/11/17 03:36:36;;;;;;;;;;;;;;;-5.37;85.39;98746.56;4974852;28;20024;-80
2022/11/17 03:39:03;;;;;;;;;;;;;;;-5.38;85.67;98740.50;4975409;28;19981;-81
2022/11/17 03:41:30;;;;;;;;;;;;;;;-5.41;85.59;98734.72;4992016;28;19930;-80
2022/11/17 03:43:57;;;;;;;;;;;;;;;-5.47;85.86;98734.34;4962463;28;20730;-80
2022/11/17 03:46:24;;;;;;;;;;;;;;;-5.44;86.10;98735.84;4975236;28;19933;-81
2022/11/17 03:48:55;;;;;;;;;;;;;;;-5.44;86.10;98725.31;4993139;28;19972;-81
2022/11/17 03:51:23;;;;;;;;;;;;;;;-5.45;86.39;98728.91;4986802;28;19940;-82
2022/11/17 03:53:51;;;;;;;;;;;;;;;-5.49;86.76;98722.31;4998248;28;19929;-84
2022/11/17 03:56:18;;;;;;;;;;;;;;;-5.45;86.72;98723.66;4981731;28;20029;-82
2022/11/17 03:58:48;;;;;;;;;;;;;;;-5.43;86.87;98726.13;4987230;28;19930;-82
2022/11/17 04:01:15;;;;;;;;;;;;;;;-5.43;87.07;98729.59;5000943;28;19936;-82
2022/11/17 04:03:42;;;;;;;;;;;;;;;-5.43;86.97;98726.97;5004971;28;19978;-82
2022/11/17 04:06:09;;;;;;;;;;;;;;;-5.47;87.06;98717.69;5011478;28;19929;-81
2022/11/17 04:08:36;;;;;;;;;;;;;;;-5.44;87.33;98722.69;5011562;28;20076;-81
2022/11/17 04:16:34;;;;;;;;;;;;;;;-5.28;87.42;98709.69;4996689;28;19961;-82
2022/11/17 04:19:01;;;;;;;;;;;;;;;-5.23;87.53;98714.50;4993354;28;19936;-81
2022/11/17 04:21:28;;;;;;;;;;;;;;;-5.21;87.24;98719.63;5002208;28;19930;-81
2022/11/17 04:23:56;;;;;;;;;;;;;;;-5.20;87.22;98711.56;5011243;28;19956;-81
2022/11/17 04:29:09;;;;;;;;;;;;;;;-5.18;87.32;98708.78;5008130;28;20130;-82
2022/11/17 04:31:36;;;;;;;;;;;;;;;-5.18;87.38;98712.22;5002556;28;20439;-80
2022/11/17 04:34:03;;;;;;;;;;;;;;;-5.13;87.53;98711.78;4996199;28;20063;-83
2022/11/17 04:36:39;;;;;;;;;;;;;;;-5.09;87.31;98718.38;5004732;28;20040;-82
2022/11/17 04:39:07;;;;;;;;;;;;;;;-5.09;87.15;98705.22;4993995;28;19930;-82
2022/11/17 04:41:52;;;;;;;;;;;;;;;-5.06;87.03;98707.56;4993253;28;19930;-82
2022/11/17 04:44:21;;;;;;;;;;;;;;;-5.11;87.25;98709.84;4994321;28;19964;-82
2022/11/17 04:46:48;;;;;;;;;;;;;;;-5.10;87.16;98711.47;5004474;28;19934;-82
2022/11/17 04:49:15;;;;;;;;;;;;;;;-5.08;87.14;98709.53;4994762;28;19936;-84
2022/11/17 04:51:42;;;;;;;;;;;;;;;-5.07;87.09;98711.97;4997055;28;19934;-83
2022/11/17 04:54:09;;;;;;;;;;;;;;;-5.08;87.12;98712.16;5007181;28;19934;-82
2022/11/17 04:56:36;;;;;;;;;;;;;;;-5.12;87.17;98713.44;5007359;28;19933;-81
2022/11/17 04:59:03;;;;;;;;;;;;;;;-5.16;87.49;98728.69;4999807;28;20317;-82
2022/11/17 05:01:30;;;;;;;;;;;;;;;-5.15;87.44;98714.56;5030652;28;19975;-81
2022/11/17 05:03:58;;;;;;;;;;;;;;;-5.14;87.43;98710.97;5045918;28;19929;-81
2022/11/17 05:06:35;;;;;;;;;;;;;;;-5.12;87.58;98713.44;5009735;28;19936;-81
2022/11/17 05:09:05;;;;;;;;;;;;;;;-5.11;87.60;98713.28;5031672;28;19929;-82
2022/11/17 05:14:18;;;;;;;;;;;;;;;-5.02;87.43;98717.63;5024234;28;20027;-82
2022/11/17 05:17:08;;;;;;;;;;;;;;;-5.01;87.37;98715.84;5017043;28;20016;-81
2022/11/17 05:19:38;;;;;;;;;;;;;;;-5.01;87.61;98706.13;5013033;28;19939;-83
2022/11/17 05:23:52;;;;;;;;;;;;;;;-4.96;87.54;98710.94;5043481;28;20319;-89
2022/11/17 05:24:55;;;;;;;;;;;;;;;-4.91;87.56;98716.56;5056918;28;19932;-81
2022/11/17 05:27:22;;;;;;;;;;;;;;;-4.92;87.66;98712.28;5035804;28;19929;-82
2022/11/17 05:29:49;;;;;;;;;;;;;;;-4.95;87.58;98717.03;5053712;28;19951;-82
2022/11/17 05:32:16;;;;;;;;;;;;;;;-4.98;87.81;98710.25;5053653;28;19960;-82
2022/11/17 05:34:42;;;;;;;;;;;;;;;-4.98;87.62;98710.25;5033479;28;19928;-82
2022/11/17 05:37:09;;;;;;;;;;;;;;;-4.97;87.96;98706.63;5030625;28;19939;-81
2022/11/17 05:39:36;;;;;;;;;;;;;;;-4.94;87.88;98705.50;5017241;28;20308;-82
2022/11/17 05:42:03;;;;;;;;;;;;;;;-4.91;87.83;98713.09;5032843;28;19933;-81
2022/11/17 05:44:30;;;;;;;;;;;;;;;-4.88;87.94;98711.00;5033292;28;19929;-81
2022/11/17 05:46:57;;;;;;;;;;;;;;;-4.85;87.77;98710.69;5015745;28;19936;-81
2022/11/17 05:49:24;;;;;;;;;;;;;;;-4.86;87.61;98706.41;4999328;28;20003;-81
2022/11/17 05:51:51;;;;;;;;;;;;;;;-4.86;87.61;98711.69;5033258;28;19972;-80
2022/11/17 05:54:19;;;;;;;;;;;;;;;-4.84;87.87;98707.06;5032946;28;19929;-81
2022/11/17 05:56:54;;;;;;;;;;;;;;;-4.81;87.76;98701.50;5013681;28;20419;-81
2022/11/17 05:59:25;;;;;;;;;;;;;;;-4.82;87.59;98705.09;5023614;28;19936;-81
2022/11/17 06:01:56;;;;;;;;;;;;;;;-4.84;87.69;98701.78;5031999;28;20280;-82
2022/11/17 06:04:24;;;;;;;;;;;;;;;-4.85;87.91;98700.16;5032609;28;19929;-81
2022/11/17 06:06:51;;;;;;;;;;;;;;;-4.75;87.91;98697.44;5014418;28;19929;-81
2022/11/17 06:09:25;;;;;;;;;;;;;;;-4.62;87.87;98697.84;5016344;28;19929;-82
2022/11/17 06:11:52;;;;;;;;;;;;;;;-4.58;87.72;98696.56;5032915;28;19929;-81
2022/11/17 06:14:19;;;;;;;;;;;;;;;-4.60;87.62;98697.69;5033681;28;20380;-81
2022/11/17 06:16:46;;;;;;;;;;;;;;;-4.57;87.73;98702.66;5015272;28;19929;-81
2022/11/17 06:19:20;;;;;;;;;;;;;;;-4.53;87.61;98698.72;5033940;28;20310;-82
2022/11/17 06:21:48;;;;;;;;;;;;;;;-4.51;87.40;98696.75;5035288;28;19933;-81
2022/11/17 06:24:41;;;;;;;;;;;;;;;-4.50;87.38;98692.31;5005885;28;19929;-85
2022/11/17 06:27:08;;;;;;;;;;;;;;;-4.50;87.53;98692.31;5017870;28;20031;-81
2022/11/17 06:29:35;;;;;;;;;;;;;;;-4.47;87.43;98698.09;5017340;28;19975;-81
2022/11/17 06:32:09;;;;;;;;;;;;;;;-4.45;87.44;98690.03;5032731;28;20411;-81
2022/11/17 06:34:38;;;;;;;;;;;;;;;-4.46;87.32;98693.66;5032222;28;19964;-81
2022/11/17 06:37:10;;;;;;;;;;;;;;;-4.41;87.32;98691.38;5032160;28;19981;-80
2022/11/17 06:39:37;;;;;;;;;;;;;;;-4.36;87.46;98694.34;5014657;28;20404;-80
2022/11/17 06:42:04;;;;;;;;;;;;;;;-4.30;87.55;98692.91;5032196;28;20023;-81
2022/11/17 06:44:31;;;;;;;;;;;;;;;-4.24;87.26;98693.09;5032124;28;19972;-82
2022/11/17 06:46:58;;;;;;;;;;;;;;;-4.23;87.42;98693.94;5031975;28;19929;-82
2022/11/17 06:49:25;;;;;;;;;;;;;;;-4.23;87.25;98700.03;4981298;28;20341;-81
2022/11/17 06:51:52;;;;;;;;;;;;;;;-4.24;87.31;98694.91;5032696;28;19929;-80
2022/11/17 06:54:20;;;;;;;;;;;;;;;-4.24;87.49;98689.66;5015281;28;19948;-80
2022/11/17 06:56:48;;;;;;;;;;;;;;;-4.23;87.53;98686.03;5031912;28;19936;-81
2022/11/17 06:59:16;;;;;;;;;;;;;;;-4.21;87.36;98686.69;5013791;28;20396;-82
2022/11/17 07:01:45;;;;;;;;;;;;;;;-4.19;87.08;98690.81;5013687;28;19956;-83
2022/11/17 07:04:12;;;;;;;;;;;;;;;-4.28;87.04;98691.78;5030636;28;20359;-82
2022/11/17 07:06:39;;;;;;;;;;;;;;;-4.23;87.13;98688.66;5032088;28;19933;-82
2022/11/17 07:09:06;;;;;;;;;;;;;;;-4.18;86.92;98691.63;5031459;28;20063;-83
2022/11/17 07:11:33;;;;;;;;;;;;;;;-4.12;86.71;98696.28;5031938;28;19936;-81
2022/11/17 07:14:00;;;;;;;;;;;;;;;-4.08;86.65;98692.34;5013925;28;20412;-82
2022/11/17 07:16:29;;;;;;;;;;;;;;;-4.19;86.19;98690.00;5031834;28;19935;-81
2022/11/17 07:18:58;;;;;;;;;;;;;;;-4.30;86.40;98687.63;5031315;28;20303;-83
2022/11/17 07:21:25;;;;;;;;;;;;;;;-4.33;86.21;98685.31;5031463;28;19972;-83
2022/11/17 07:23:52;;;;;;;;;;;;;;;-4.30;86.18;98687.63;5031474;28;19933;-82
2022/11/17 07:26:19;;;;;;;;;;;;;;;-4.26;86.14;98689.78;5013864;28;19928;-82
2022/11/17 07:28:45;;;;;;;;;;;;;;;-4.24;85.70;98694.91;5013623;28;19979;-80
2022/11/17 07:31:20;;;;;;;;;;;;;;;-4.23;85.58;98693.94;5013283;28;20307;-83
2022/11/17 07:33:47;;;;;;;;;;;;;;;-4.19;85.09;98695.28;5013487;28;20051;-82
2022/11/17 07:36:14;;;;;;;;;;;;;;;-4.10;85.22;98689.06;5028946;28;19940;-81
2022/11/17 07:38:43;;;;;;;;;;;;;;;-4.02;85.10;98696.19;5009323;28;19939;-83
2022/11/17 07:41:11;;;;;;;;;;;;;;;-4.10;84.56;98704.88;5026735;28;19960;-81
2022/11/17 07:43:38;;;;;;;;;;;;;;;-4.07;84.42;98703.75;5031805;28;20020;-80
2022/11/17 07:46:07;;;;;;;;;;;;;;;-3.94;84.32;98699.66;4658364;28;10000117;-81
2022/11/17 07:48:34;;;;;;;;;;;;;;;-3.92;84.17;98702.16;4990338;28;20234;-83
2022/11/17 07:51:06;;;;;;;;;;;;;;;-3.83;84.00;98700.34;5011256;28;19983;-81
2022/11/17 07:53:34;;;;;;;;;;;;;;;-3.69;83.80;98697.09;4993560;28;20035;-79
2022/11/17 07:56:46;;;;;;;;;;;;;;;-3.58;83.17;98696.78;4989876;28;20418;-81
2022/11/17 07:59:13;;;;;;;;;;;;;;;-3.45;82.87;98696.31;5015387;28;19940;-81
2022/11/17 08:01:47;;;;;;;;;;;;;;;-3.26;82.73;98703.13;5006365;28;20047;-82
2022/11/17 08:04:14;;;;;;;;;;;;;;;-3.12;82.39;98704.28;4995842;28;20300;-81
2022/11/17 08:06:41;;;;;;;;;;;;;;;-3.12;81.75;98694.53;5022051;28;20422;-82
2022/11/17 08:09:09;;;;;;;;;;;;;;;-3.27;81.02;98701.44;5030613;28;20434;-81
2022/11/17 08:11:36;;;;;;;;;;;;;;;-3.25;81.01;98699.47;5030882;28;20323;-82
2022/11/17 08:14:03;;;;;;;;;;;;;;;-3.05;80.67;98700.81;5030727;28;19929;-81
2022/11/17 08:16:36;;;;;;;;;;;;;;;-2.54;79.48;98697.16;5023891;28;19936;-81
2022/11/17 08:19:05;;;;;;;;;;;;;;;-1.89;78.35;98691.66;5019479;28;20032;-81
2022/11/17 08:21:32;;;;;;;;;;;;;;;-1.35;76.85;98686.38;5010790;28;19930;-82
2022/11/17 08:23:59;;;;;;;;;;;;;;;-1.03;75.54;98688.97;4981624;28;19976;-81
2022/11/17 08:26:26;;;;;;;;;;;;;;;-1.22;74.89;98687.63;5030616;28;20378;-82
2022/11/17 08:28:52;;;;;;;;;;;;;;;-1.72;74.61;98684.47;5013580;28;19929;-82
2022/11/17 08:31:24;;;;;;;;;;;;;;;-1.91;74.56;98683.06;5031127;28;20357;-81
2022/11/17 08:33:51;;;;;;;;;;;;;;;-2.02;74.36;98692.19;5012922;28;19983;-81
2022/11/17 08:36:18;;;;;;;;;;;;;;;-2.31;74.46;98684.84;5030714;28;19961;-83
2022/11/17 08:38:45;;;;;;;;;;;;;;;-2.59;74.96;98686.25;5029063;28;19952;-81
2022/11/17 08:41:12;;;;;;;;;;;;;;;-2.67;75.38;98687.09;5028654;28;19929;-82
2022/11/17 08:43:39;;;;;;;;;;;;;;;-2.52;75.45;98695.97;5008579;28;19932;-81
2022/11/17 08:46:09;;;;;;;;;;;;;;;-1.37;73.74;98691.03;5019591;28;19940;-81
2022/11/17 08:48:36;;;;;;;;;;;;;;;-0.52;71.92;98684.69;5022150;28;19974;-79
2022/11/17 08:51:05;;;;;;;;;;;;;;;-0.65;71.23;98684.50;5020042;28;20651;-81
2022/11/17 08:53:32;;;;;;;;;;;;;;;-1.31;71.12;98677.09;5009069;28;20023;-81
2022/11/17 08:55:59;;;;;;;;;;;;;;;-1.46;71.46;98670.09;5017863;28;19996;-82
2022/11/17 08:58:26;;;;;;;;;;;;;;;-1.51;71.59;98677.72;5022741;28;19960;-83
2022/11/17 09:00:55;;;;;;;;;;;;;;;-0.18;69.46;98664.75;4999695;28;19935;-82
2022/11/17 09:03:29;;;;;;;;;;;;;;;0.50;66.80;98667.22;4993071;28;20304;-84
2022/11/17 09:05:56;;;;;;;;;;;;;;;1.61;64.43;98665.72;4976808;28;19930;-82
2022/11/17 09:08:24;;;;;;;;;;;;;;;1.36;63.02;98668.00;5009755;28;20517;-82
2022/11/17 09:11:11;;;;;;;;;;;;;;;0.87;63.16;98663.50;5010391;28;20391;-82
2022/11/17 09:13:38;;;;;;;;;;;;;;;-0.21;64.43;98659.84;5012800;28;20032;-81
2022/11/17 09:16:05;;;;;;;;;;;;;;;-0.96;66.00;98660.75;5013898;28;20389;-84
2022/11/17 09:18:35;;;;;;;;;;;;;;;-1.48;66.97;98664.13;4993093;28;19980;-82
2022/11/17 09:21:04;;;;;;;;;;;;;;;-1.97;68.05;98659.97;4996262;28;19992;-81
2022/11/17 09:23:31;;;;;;;;;;;;;;;-2.21;69.32;98661.69;4978450;28;20391;-80
2022/11/17 09:26:02;;;;;;;;;;;;;;;-2.47;70.06;98663.78;4996738;28;19929;-80
2022/11/17 09:28:29;;;;;;;;;;;;;;;-2.59;70.40;98660.66;5013824;28;19973;-81
2022/11/17 09:30:57;;;;;;;;;;;;;;;-2.35;70.38;98659.78;4996251;28;19930;-83
2022/11/17 09:33:27;;;;;;;;;;;;;;;-2.13;70.29;98652.06;5004873;28;19940;-81
2022/11/17 09:35:55;;;;;;;;;;;;;;;-2.32;69.94;98653.31;4974786;28;20364;-82
2022/11/17 09:38:22;;;;;;;;;;;;;;;-2.26;70.47;98642.88;4993689;28;19960;-81
2022/11/17 09:40:49;;;;;;;;;;;;;;;-1.34;69.50;98645.69;4981488;28;20032;-81
2022/11/17 09:43:27;;;;;;;;;;;;;;;-0.23;66.53;98640.63;4982988;28;20025;-81
2022/11/17 09:46:12;;;;;;;;;;;;;;;1.93;61.44;98634.16;4980257;28;19937;-81
2022/11/17 09:48:42;;;;;;;;;;;;;;;1.87;59.22;98637.59;5001583;28;20028;-81
2022/11/17 09:51:11;;;;;;;;;;;;;;;1.77;58.92;98637.16;4977118;28;19929;-81
2022/11/17 09:53:37;;;;;;;;;;;;;;;2.16;58.12;98636.50;5004065;28;19983;-81
2022/11/17 09:56:06;;;;;;;;;;;;;;;0.76;59.45;98642.75;4996423;28;19940;-80
2022/11/17 09:59:05;;;;;;;;;;;;;;;-0.38;61.85;98643.31;4978713;28;20016;-82
2022/11/17 10:01:32;;;;;;;;;;;;;;;-1.26;64.40;98649.28;4995341;28;19929;-81
2022/11/17 10:04:00;;;;;;;;;;;;;;;-1.76;66.44;98643.47;5026165;28;20391;-81
2022/11/17 10:06:28;;;;;;;;;;;;;;;-2.09;67.52;98640.16;5023411;28;19936;-81
2022/11/17 10:09:04;;;;;;;;;;;;;;;-2.38;68.31;98646.91;5020332;28;19929;-81
2022/11/17 10:11:33;;;;;;;;;;;;;;;-2.55;69.23;98650.59;5000655;28;20020;-81
2022/11/17 10:14:02;;;;;;;;;;;;;;;-2.67;69.34;98645.63;5024208;28;19933;-80
2022/11/17 10:16:29;;;;;;;;;;;;;;;-2.79;69.76;98646.97;5018992;28;20024;-81
2022/11/17 10:18:56;;;;;;;;;;;;;;;-2.92;70.04;98649.31;5021536;28;19976;-81
2022/11/17 10:21:23;;;;;;;;;;;;;;;-2.85;70.44;98647.66;5015745;28;19937;-81
2022/11/17 10:23:57;;;;;;;;;;;;;;;-2.77;70.14;98647.66;4993440;28;20285;-82
2022/11/17 10:26:24;;;;;;;;;;;;;;;-2.69;69.95;98647.63;5034173;28;19995;-81
2022/11/17 10:29:11;;;;;;;;;;;;;;;-2.79;69.67;98640.88;5027637;28;20020;-82
2022/11/17 10:31:39;;;;;;;;;;;;;;;-2.84;69.88;98651.94;5016197;28;19975;-81
2022/11/17 10:34:07;;;;;;;;;;;;;;;-2.84;70.12;98646.66;5024539;28;19975;-82
2022/11/17 10:36:34;;;;;;;;;;;;;;;-2.83;70.29;98650.97;5023127;28;20005;-81
2022/11/17 10:39:07;;;;;;;;;;;;;;;-2.87;70.40;98652.28;5018688;28;19941;-81
2022/11/17 10:41:46;;;;;;;;;;;;;;;-2.93;70.49;98645.03;5009486;28;19936;-82
2022/11/17 10:44:13;;;;;;;;;;;;;;;-2.95;70.70;98647.03;5026192;28;21101;-82
2022/11/17 10:46:56;;;;;;;;;;;;;;;-2.98;70.81;98642.06;5021752;28;20293;-81
2022/11/17 10:49:30;;;;;;;;;;;;;;;-3.01;70.90;98645.03;5009876;28;20331;-80
2022/11/17 10:52:16;;;;;;;;;;;;;;;-3.09;71.24;98651.13;5005071;28;19929;-80
2022/11/17 10:54:43;;;;;;;;;;;;;;;-2.86;70.99;98656.56;5031255;28;19933;-82
2022/11/17 10:57:15;;;;;;;;;;;;;;;-2.66;70.28;98649.94;5026544;28;19929;-81
2022/11/17 11:00:28;;;;;;;;;;;;;;;-2.70;69.95;98645.16;4991550;28;19933;-82
2022/11/17 11:03:25;;;;;;;;;;;;;;;-2.28;69.34;98641.41;5014635;28;19943;-83
2022/11/17 11:05:59;;;;;;;;;;;;;;;-2.46;68.69;98642.44;5005329;28;19929;-81
2022/11/17 11:08:38;;;;;;;;;;;;;;;-2.49;68.63;98642.78;5011909;28;20256;-81
2022/11/17 11:11:07;;;;;;;;;;;;;;;-2.39;68.71;98645.25;5013618;28;20207;-81
2022/11/17 11:13:36;;;;;;;;;;;;;;;-2.36;68.28;98646.72;5013772;28;20400;-82
2022/11/17 11:16:06;;;;;;;;;;;;;;;-2.47;68.51;98639.97;5014139;28;20031;-85
2022/11/17 11:18:45;;;;;;;;;;;;;;;-2.58;69.09;98651.75;5002690;28;19983;-87
2022/11/17 11:21:15;;;;;;;;;;;;;;;-2.70;69.15;98639.88;4997300;28;19929;-83
2022/11/17 11:23:42;;;;;;;;;;;;;;;-2.84;69.80;98651.94;5026842;28;20320;-84
2022/11/17 11:26:26;;;;;;;;;;;;;;;-2.93;70.38;98645.88;5012676;28;19935;-82
2022/11/17 11:28:53;;;;;;;;;;;;;;;-2.89;70.63;98641.06;5013361;28;19975;-81
2022/11/17 11:31:30;;;;;;;;;;;;;;;-2.74;70.70;98647.31;4995616;28;19933;-83
2022/11/17 11:34:00;;;;;;;;;;;;;;;-2.73;70.33;98640.22;5024461;28;19960;-82
2022/11/17 11:36:46;;;;;;;;;;;;;;;-2.69;69.92;98647.63;5028895;28;19968;-82
2022/11/17 11:39:20;;;;;;;;;;;;;;;-2.67;69.19;98650.09;5010329;28;20035;-81
2022/11/17 11:41:50;;;;;;;;;;;;;;;-2.75;68.92;98653.59;5009636;28;19936;-81
2022/11/17 11:44:20;;;;;;;;;;;;;;;-2.79;69.01;98641.69;5027232;28;20379;-81
2022/11/17 11:47:05;;;;;;;;;;;;;;;-2.88;69.02;98654.09;5029097;28;19968;-82
2022/11/17 11:49:58;;;;;;;;;;;;;;;-2.93;69.08;98645.03;5028193;28;19944;-82
2022/11/17 11:52:26;;;;;;;;;;;;;;;-3.02;69.28;98646.03;4940928;29;20401;-84
2022/11/17 11:54:55;;;;;;;;;;;;;;;-3.06;69.08;98641.09;4934258;29;20365;-82
2022/11/17 11:57:25;;;;;;;;;;;;;;;-3.08;69.34;98637.78;4929952;29;20410;-82
2022/11/17 11:59:53;;;;;;;;;;;;;;;-3.11;69.05;98643.41;4929277;29;19970;-82
2022/11/17 12:02:29;;;;;;;;;;;;;;;-3.11;68.73;98640.75;4921278;29;19931;-82
2022/11/17 12:05:15;;;;;;;;;;;;;;;-3.18;68.68;98638.94;4922030;29;19937;-84
2022/11/17 12:08:02;;;;;;;;;;;;;;;-3.24;67.65;98637.81;4913729;29;19938;-83
2022/11/17 12:10:52;;;;;;;;;;;;;;;-3.21;67.88;98640.09;4930761;29;19962;-82
2022/11/17 12:13:20;;;;;;;;;;;;;;;-3.15;67.84;98635.97;4924661;29;19930;-85
2022/11/17 12:15:48;;;;;;;;;;;;;;;-3.26;66.96;98642.41;4912213;29;19938;-83
2022/11/17 12:18:17;;;;;;;;;;;;;;;-3.33;65.98;98633.50;4913565;29;19935;-82
2022/11/17 12:20:54;;;;;;;;;;;;;;;-3.45;65.19;98635.63;4923107;29;20338;-84
2022/11/17 12:23:30;;;;;;;;;;;;;;;-3.52;65.17;98645.19;4925951;29;20329;-83
2022/11/17 12:25:57;;;;;;;;;;;;;;;-3.63;65.33;98640.25;4931681;29;19934;-83
2022/11/17 12:28:42;;;;;;;;;;;;;;;-3.69;65.65;98639.09;4938009;28;19933;-83
2022/11/17 12:31:11;;;;;;;;;;;;;;;-3.71;66.11;98633.97;5010584;28;20518;-85
2022/11/17 12:33:51;;;;;;;;;;;;;;;-3.70;66.38;98634.78;5009835;28;19930;-84
2022/11/17 12:36:30;;;;;;;;;;;;;;;-3.79;67.11;98641.03;5012714;28;19935;-85
2022/11/17 12:38:58;;;;;;;;;;;;;;;-3.86;67.85;98640.84;5025347;28;19933;-86
2022/11/17 12:41:48;;;;;;;;;;;;;;;-3.95;68.41;98634.75;5011563;28;20063;-86
2022/11/17 12:44:30;;;;;;;;;;;;;;;-4.03;69.28;98642.59;5010481;28;20400;-86
2022/11/17 12:47:17;;;;;;;;;;;;;;;-4.13;69.81;98639.28;4994814;28;20341;-85
2022/11/17 12:49:53;;;;;;;;;;;;;;;-4.17;70.09;98646.69;4998835;28;19979;-85
2022/11/17 12:52:47;;;;;;;;;;;;;;;-4.20;70.19;98640.94;5018869;28;19929;-85
2022/11/17 12:55:23;;;;;;;;;;;;;;;-4.21;70.36;98639.25;4908641;29;19972;-85
2022/11/17 12:57:55;;;;;;;;;;;;;;;-4.28;70.62;98638.25;4943659;29;20029;-85
2022/11/17 13:00:22;;;;;;;;;;;;;;;-4.32;70.42;98648.28;4921617;29;20030;-87
2022/11/17 13:03:12;;;;;;;;;;;;;;;-4.40;70.28;98653.53;4932552;29;19930;-85
2022/11/17 13:05:40;;;;;;;;;;;;;;;-4.44;70.03;98642.47;4939149;29;19941;-85
2022/11/17 13:08:13;;;;;;;;;;;;;;;-4.48;69.94;98653.47;4923198;29;20432;-86
2022/11/17 13:10:40;;;;;;;;;;;;;;;-4.57;70.27;98655.25;4956172;29;19930;-86
2022/11/17 13:13:23;;;;;;;;;;;;;;;-4.65;70.52;98652.56;4956104;29;20328;-85
2022/11/17 13:15:50;;;;;;;;;;;;;;;-4.70;70.73;98644.31;4939230;29;20029;-86
2022/11/17 13:18:40;;;;;;;;;;;;;;;-4.77;71.14;98656.44;4938491;29;19998;-85
2022/11/17 13:21:25;;;;;;;;;;;;;;;-4.77;71.56;98659.88;4918759;29;20393;-86
2022/11/17 13:23:52;;;;;;;;;;;;;;;-4.81;71.76;98663.81;4936166;29;19937;-86
2022/11/17 13:26:21;;;;;;;;;;;;;;;-4.88;72.08;98662.78;4935843;29;19937;-85
2022/11/17 13:28:48;;;;;;;;;;;;;;;-4.91;72.23;98658.66;4904355;29;20477;-86
2022/11/17 13:31:16;;;;;;;;;;;;;;;-4.88;72.22;98662.78;4922588;29;20074;-86